sensor_id;sensor_type;location;lat;lon;timestamp;temperature;humidity
7341;DHT22;6870;50.944;6.932;2023-04-06T00:00:06;20.30;22.50
7341;DHT22;6870;50.944;6.932;2023-04-06T00:02:36;20.20;23.20
7341;DHT22;6870;50.944;6.932;2023-04-06T00:05:04;20.40;23.40
7341;DHT22;6870;50.944;6.932;2023-04-06T00:07:33;20.20;23.20
7341;DHT22;6870;50.944;6.932;2023-04-06T00:10:02;20.20;23.30
7341;DHT22;6870;50.944;6.932;2023-04-06T00:12:31;20.30;23.40
7341;DHT22;6870;50.944;6.932;2023-04-06T00:15:00;20.50;23.50
7341;DHT22;6870;50.944;6.932;2023-04-06T00:17:29;20.40;23.50
7341;DHT22;6870;50.944;6.932;2023-04-06T00:19:57;20.40;23.60
7341;DHT22;6870;50.944;6.932;2023-04-06T00:22:26;20.20;23.50
7341;DHT22;6870;50.944;6.932;2023-04-06T00:24:54;20.30;23.60
7341;DHT22;6870;50.944;6.932;2023-04-06T00:27:22;20.20;23.50
7341;DHT22;6870;50.944;6.932;2023-04-06T00:29:50;20.10;22.90
7341;DHT22;6870;50.944;6.932;2023-04-06T00:32:19;20.30;23.70
7341;DHT22;6870;50.944;6.932;2023-04-06T00:34:48;20.20;23.00
7341;DHT22;6870;50.944;6.932;2023-04-06T00:37:16;20.20;23.80
7341;DHT22;6870;50.944;6.932;2023-04-06T00:39:44;20.20;23.80
7341;DHT22;6870;50.944;6.932;2023-04-06T00:42:13;20.10;23.60
7341;DHT22;6870;50.944;6.932;2023-04-06T00:44:41;20.10;23.80
7341;DHT22;6870;50.944;6.932;2023-04-06T00:47:10;20.10;23.80
7341;DHT22;6870;50.944;6.932;2023-04-06T00:49:39;20.10;23.80
7341;DHT22;6870;50.944;6.932;2023-04-06T00:52:07;20.10;23.60
7341;DHT22;6870;50.944;6.932;2023-04-06T00:54:36;20.20;23.20
7341;DHT22;6870;50.944;6.932;2023-04-06T00:57:04;20.20;23.90
7341;DHT22;6870;50.944;6.932;2023-04-06T00:59:32;20.20;23.50
7341;DHT22;6870;50.944;6.932;2023-04-06T01:02:00;20.10;23.90
7341;DHT22;6870;50.944;6.932;2023-04-06T01:04:29;20.20;24.00
7341;DHT22;6870;50.944;6.932;2023-04-06T01:06:59;20.00;23.60
7341;DHT22;6870;50.944;6.932;2023-04-06T01:09:27;20.20;24.00
7341;DHT22;6870;50.944;6.932;2023-04-06T01:11:56;20.00;23.30
7341;DHT22;6870;50.944;6.932;2023-04-06T01:14:25;20.20;24.10
7341;DHT22;6870;50.944;6.932;2023-04-06T01:16:53;20.10;24.10
7341;DHT22;6870;50.944;6.932;2023-04-06T01:19:22;20.30;24.20
7341;DHT22;6870;50.944;6.932;2023-04-06T01:21:50;20.30;24.20
7341;DHT22;6870;50.944;6.932;2023-04-06T01:24:21;20.10;24.10
7341;DHT22;6870;50.944;6.932;2023-04-06T01:26:49;19.90;24.00
7341;DHT22;6870;50.944;6.932;2023-04-06T01:29:17;20.00;24.00
7341;DHT22;6870;50.944;6.932;2023-04-06T01:31:46;20.10;24.10
7341;DHT22;6870;50.944;6.932;2023-04-06T01:34:14;19.80;23.90
7341;DHT22;6870;50.944;6.932;2023-04-06T01:36:42;20.00;23.30
7341;DHT22;6870;50.944;6.932;2023-04-06T01:39:11;19.70;23.80
7341;DHT22;6870;50.944;6.932;2023-04-06T01:41:40;19.70;23.60
7341;DHT22;6870;50.944;6.932;2023-04-06T01:44:08;20.00;24.10
7341;DHT22;6870;50.944;6.932;2023-04-06T01:46:36;19.60;23.80
7341;DHT22;6870;50.944;6.932;2023-04-06T01:49:04;19.60;23.80
7341;DHT22;6870;50.944;6.932;2023-04-06T01:51:33;19.60;23.80
7341;DHT22;6870;50.944;6.932;2023-04-06T01:54:01;19.70;23.90
7341;DHT22;6870;50.944;6.932;2023-04-06T01:56:29;20.00;24.10
7341;DHT22;6870;50.944;6.932;2023-04-06T01:58:59;19.70;23.90
7341;DHT22;6870;50.944;6.932;2023-04-06T02:01:27;19.90;23.80
7341;DHT22;6870;50.944;6.932;2023-04-06T02:03:55;19.70;23.60
7341;DHT22;6870;50.944;6.932;2023-04-06T02:06:23;19.60;23.40
7341;DHT22;6870;50.944;6.932;2023-04-06T02:08:52;19.60;23.40
7341;DHT22;6870;50.944;6.932;2023-04-06T02:11:20;19.90;24.10
7341;DHT22;6870;50.944;6.932;2023-04-06T02:13:48;20.00;23.70
7341;DHT22;6870;50.944;6.932;2023-04-06T02:16:17;20.00;23.90
7341;DHT22;6870;50.944;6.932;2023-04-06T02:18:45;19.70;23.70
7341;DHT22;6870;50.944;6.932;2023-04-06T02:21:14;19.70;23.90
7341;DHT22;6870;50.944;6.932;2023-04-06T02:23:46;19.80;23.40
7341;DHT22;6870;50.944;6.932;2023-04-06T02:26:16;19.70;24.00
7341;DHT22;6870;50.944;6.932;2023-04-06T02:28:44;20.10;24.30
7341;DHT22;6870;50.944;6.932;2023-04-06T02:31:12;19.60;23.70
7341;DHT22;6870;50.944;6.932;2023-04-06T02:33:43;19.60;23.30
7341;DHT22;6870;50.944;6.932;2023-04-06T02:36:11;19.90;24.20
7341;DHT22;6870;50.944;6.932;2023-04-06T02:38:40;19.80;23.80
7341;DHT22;6870;50.944;6.932;2023-04-06T02:41:08;19.60;24.00
7341;DHT22;6870;50.944;6.932;2023-04-06T02:43:36;19.90;23.80
7341;DHT22;6870;50.944;6.932;2023-04-06T02:46:04;19.70;23.70
7341;DHT22;6870;50.944;6.932;2023-04-06T02:48:32;19.70;24.10
7341;DHT22;6870;50.944;6.932;2023-04-06T02:51:04;19.80;24.20
7341;DHT22;6870;50.944;6.932;2023-04-06T02:53:32;19.50;24.00
7341;DHT22;6870;50.944;6.932;2023-04-06T02:56:01;19.70;24.20
7341;DHT22;6870;50.944;6.932;2023-04-06T02:58:29;19.50;24.10
7341;DHT22;6870;50.944;6.932;2023-04-06T03:00:57;19.60;24.10
7341;DHT22;6870;50.944;6.932;2023-04-06T03:03:25;19.70;24.00
7341;DHT22;6870;50.944;6.932;2023-04-06T03:05:53;19.60;24.10
7341;DHT22;6870;50.944;6.932;2023-04-06T03:08:24;19.70;24.10
7341;DHT22;6870;50.944;6.932;2023-04-06T03:10:52;19.60;23.70
7341;DHT22;6870;50.944;6.932;2023-04-06T03:13:20;19.70;24.10
7341;DHT22;6870;50.944;6.932;2023-04-06T03:15:49;19.70;24.30
7341;DHT22;6870;50.944;6.932;2023-04-06T03:18:20;19.70;24.20
7341;DHT22;6870;50.944;6.932;2023-04-06T03:20:49;19.80;24.40
7341;DHT22;6870;50.944;6.932;2023-04-06T03:23:17;19.70;23.90
7341;DHT22;6870;50.944;6.932;2023-04-06T03:25:48;19.60;23.80
7341;DHT22;6870;50.944;6.932;2023-04-06T03:28:16;19.70;24.30
7341;DHT22;6870;50.944;6.932;2023-04-06T03:30:45;19.60;24.30
7341;DHT22;6870;50.944;6.932;2023-04-06T03:33:13;19.40;23.80
7341;DHT22;6870;50.944;6.932;2023-04-06T03:35:41;19.60;24.30
7341;DHT22;6870;50.944;6.932;2023-04-06T03:38:10;19.50;24.20
7341;DHT22;6870;50.944;6.932;2023-04-06T03:40:38;19.60;24.20
7341;DHT22;6870;50.944;6.932;2023-04-06T03:43:07;19.60;24.00
7341;DHT22;6870;50.944;6.932;2023-04-06T03:45:35;19.40;24.70
7341;DHT22;6870;50.944;6.932;2023-04-06T03:48:04;19.60;24.30
7341;DHT22;6870;50.944;6.932;2023-04-06T03:50:33;19.50;24.20
7341;DHT22;6870;50.944;6.932;2023-04-06T03:53:01;19.70;24.40
7341;DHT22;6870;50.944;6.932;2023-04-06T03:55:30;19.60;24.30
7341;DHT22;6870;50.944;6.932;2023-04-06T03:57:58;19.60;23.80
7341;DHT22;6870;50.944;6.932;2023-04-06T04:00:27;19.60;24.10
7341;DHT22;6870;50.944;6.932;2023-04-06T04:02:56;19.60;24.30
7341;DHT22;6870;50.944;6.932;2023-04-06T04:05:24;19.50;24.20
7341;DHT22;6870;50.944;6.932;2023-04-06T04:07:52;19.60;24.00
7341;DHT22;6870;50.944;6.932;2023-04-06T04:10:20;19.60;24.10
7341;DHT22;6870;50.944;6.932;2023-04-06T04:12:49;19.80;24.00
7341;DHT22;6870;50.944;6.932;2023-04-06T04:15:17;19.80;24.20
7341;DHT22;6870;50.944;6.932;2023-04-06T04:17:46;19.50;24.20
7341;DHT22;6870;50.944;6.932;2023-04-06T04:20:16;19.60;24.30
7341;DHT22;6870;50.944;6.932;2023-04-06T04:22:44;19.80;24.20
7341;DHT22;6870;50.944;6.932;2023-04-06T04:25:12;19.80;24.40
7341;DHT22;6870;50.944;6.932;2023-04-06T04:27:41;19.70;24.30
7341;DHT22;6870;50.944;6.932;2023-04-06T04:30:09;19.60;24.20
7341;DHT22;6870;50.944;6.932;2023-04-06T04:32:37;19.70;24.30
7341;DHT22;6870;50.944;6.932;2023-04-06T04:35:08;19.60;24.10
7341;DHT22;6870;50.944;6.932;2023-04-06T04:37:38;19.50;24.20
7341;DHT22;6870;50.944;6.932;2023-04-06T04:40:07;19.50;24.10
7341;DHT22;6870;50.944;6.932;2023-04-06T04:42:36;19.70;24.30
7341;DHT22;6870;50.944;6.932;2023-04-06T04:45:04;19.60;24.20
7341;DHT22;6870;50.944;6.932;2023-04-06T04:47:33;19.60;24.20
7341;DHT22;6870;50.944;6.932;2023-04-06T04:50:01;19.70;24.30
7341;DHT22;6870;50.944;6.932;2023-04-06T04:52:31;19.60;23.70
7341;DHT22;6870;50.944;6.932;2023-04-06T04:54:59;19.70;24.00
7341;DHT22;6870;50.944;6.932;2023-04-06T04:57:27;19.50;24.10
7341;DHT22;6870;50.944;6.932;2023-04-06T04:59:56;19.50;24.00
7341;DHT22;6870;50.944;6.932;2023-04-06T05:02:24;19.60;24.30
7341;DHT22;6870;50.944;6.932;2023-04-06T05:04:53;19.60;24.20
7341;DHT22;6870;50.944;6.932;2023-04-06T05:07:21;19.60;24.10
7341;DHT22;6870;50.944;6.932;2023-04-06T05:09:50;19.70;24.40
7341;DHT22;6870;50.944;6.932;2023-04-06T05:12:19;19.80;23.90
7341;DHT22;6870;50.944;6.932;2023-04-06T05:14:47;19.70;24.30
7341;DHT22;6870;50.944;6.932;2023-04-06T05:17:15;19.50;24.20
7341;DHT22;6870;50.944;6.932;2023-04-06T05:19:44;19.60;24.20
7341;DHT22;6870;50.944;6.932;2023-04-06T05:22:12;19.60;24.10
7341;DHT22;6870;50.944;6.932;2023-04-06T05:24:42;19.50;24.10
7341;DHT22;6870;50.944;6.932;2023-04-06T05:27:12;19.50;23.80
7341;DHT22;6870;50.944;6.932;2023-04-06T05:29:40;19.50;24.20
7341;DHT22;6870;50.944;6.932;2023-04-06T05:32:08;19.70;24.10
7341;DHT22;6870;50.944;6.932;2023-04-06T05:34:37;19.60;24.20
7341;DHT22;6870;50.944;6.932;2023-04-06T05:37:05;19.60;24.20
7341;DHT22;6870;50.944;6.932;2023-04-06T05:39:33;19.80;24.20
7341;DHT22;6870;50.944;6.932;2023-04-06T05:42:03;19.70;24.30
7341;DHT22;6870;50.944;6.932;2023-04-06T05:44:34;19.20;23.90
7341;DHT22;6870;50.944;6.932;2023-04-06T05:47:04;19.40;24.00
7341;DHT22;6870;50.944;6.932;2023-04-06T05:49:32;19.50;24.00
7341;DHT22;6870;50.944;6.932;2023-04-06T05:52:01;19.70;24.20
7341;DHT22;6870;50.944;6.932;2023-04-06T05:54:29;19.50;23.80
7341;DHT22;6870;50.944;6.932;2023-04-06T05:56:57;19.70;24.20
7341;DHT22;6870;50.944;6.932;2023-04-06T05:59:25;19.50;24.00
7341;DHT22;6870;50.944;6.932;2023-04-06T06:01:55;19.60;24.10
7341;DHT22;6870;50.944;6.932;2023-04-06T06:04:23;19.60;24.10
7341;DHT22;6870;50.944;6.932;2023-04-06T06:06:51;19.50;24.00
7341;DHT22;6870;50.944;6.932;2023-04-06T06:09:20;19.50;23.90
7341;DHT22;6870;50.944;6.932;2023-04-06T06:11:48;19.60;24.00
7341;DHT22;6870;50.944;6.932;2023-04-06T06:14:17;19.50;23.90
7341;DHT22;6870;50.944;6.932;2023-04-06T06:16:45;19.40;23.80
7341;DHT22;6870;50.944;6.932;2023-04-06T06:19:15;19.50;23.80
7341;DHT22;6870;50.944;6.932;2023-04-06T06:21:43;19.70;23.80
7341;DHT22;6870;50.944;6.932;2023-04-06T06:24:11;19.60;24.10
7341;DHT22;6870;50.944;6.932;2023-04-06T06:26:39;19.60;24.00
7341;DHT22;6870;50.944;6.932;2023-04-06T06:29:07;19.60;24.20
7341;DHT22;6870;50.944;6.932;2023-04-06T06:31:36;19.40;23.80
7341;DHT22;6870;50.944;6.932;2023-04-06T06:34:04;19.50;23.90
7341;DHT22;6870;50.944;6.932;2023-04-06T06:36:33;19.60;24.10
7341;DHT22;6870;50.944;6.932;2023-04-06T06:39:02;19.70;24.20
7341;DHT22;6870;50.944;6.932;2023-04-06T06:41:30;19.90;24.10
7341;DHT22;6870;50.944;6.932;2023-04-06T06:43:59;19.60;24.10
7341;DHT22;6870;50.944;6.932;2023-04-06T06:46:27;20.00;24.40
7341;DHT22;6870;50.944;6.932;2023-04-06T06:48:58;19.60;23.80
7341;DHT22;6870;50.944;6.932;2023-04-06T06:51:26;19.70;24.10
7341;DHT22;6870;50.944;6.932;2023-04-06T06:53:55;19.70;23.90
7341;DHT22;6870;50.944;6.932;2023-04-06T06:56:23;19.80;24.10
7341;DHT22;6870;50.944;6.932;2023-04-06T06:58:53;19.50;23.40
7341;DHT22;6870;50.944;6.932;2023-04-06T07:01:21;19.80;23.90
7341;DHT22;6870;50.944;6.932;2023-04-06T07:03:49;20.00;24.30
7341;DHT22;6870;50.944;6.932;2023-04-06T07:06:17;19.70;24.10
7341;DHT22;6870;50.944;6.932;2023-04-06T07:08:46;20.10;24.40
7341;DHT22;6870;50.944;6.932;2023-04-06T07:11:15;20.10;24.50
7341;DHT22;6870;50.944;6.932;2023-04-06T07:13:44;19.70;24.00
7341;DHT22;6870;50.944;6.932;2023-04-06T07:16:12;20.10;24.20
7341;DHT22;6870;50.944;6.932;2023-04-06T07:18:40;20.20;24.40
7341;DHT22;6870;50.944;6.932;2023-04-06T07:21:08;20.10;24.40
7341;DHT22;6870;50.944;6.932;2023-04-06T07:23:36;19.80;24.10
7341;DHT22;6870;50.944;6.932;2023-04-06T07:26:05;20.10;24.30
7341;DHT22;6870;50.944;6.932;2023-04-06T07:28:34;20.20;23.90
7341;DHT22;6870;50.944;6.932;2023-04-06T07:31:03;20.30;24.10
7341;DHT22;6870;50.944;6.932;2023-04-06T07:33:31;20.10;24.20
7341;DHT22;6870;50.944;6.932;2023-04-06T07:35:59;20.40;24.40
7341;DHT22;6870;50.944;6.932;2023-04-06T07:38:27;20.20;24.20
7341;DHT22;6870;50.944;6.932;2023-04-06T07:40:55;20.20;23.70
7341;DHT22;6870;50.944;6.932;2023-04-06T07:43:24;20.30;23.90
7341;DHT22;6870;50.944;6.932;2023-04-06T07:45:53;20.00;24.60
7341;DHT22;6870;50.944;6.932;2023-04-06T07:48:23;20.60;24.60
7341;DHT22;6870;50.944;6.932;2023-04-06T07:50:52;20.60;24.90
7341;DHT22;6870;50.944;6.932;2023-04-06T07:53:20;20.50;25.30
7341;DHT22;6870;50.944;6.932;2023-04-06T07:55:48;20.40;25.20
7341;DHT22;6870;50.944;6.932;2023-04-06T07:58:16;20.30;25.90
7341;DHT22;6870;50.944;6.932;2023-04-06T08:00:44;20.60;26.10
7341;DHT22;6870;50.944;6.932;2023-04-06T08:03:13;20.50;25.70
7341;DHT22;6870;50.944;6.932;2023-04-06T08:05:43;20.40;26.00
7341;DHT22;6870;50.944;6.932;2023-04-06T08:08:11;20.50;25.80
7341;DHT22;6870;50.944;6.932;2023-04-06T08:10:40;20.80;26.30
7341;DHT22;6870;50.944;6.932;2023-04-06T08:13:08;20.80;26.10
7341;DHT22;6870;50.944;6.932;2023-04-06T08:15:36;21.10;26.20
7341;DHT22;6870;50.944;6.932;2023-04-06T08:18:05;20.90;25.90
7341;DHT22;6870;50.944;6.932;2023-04-06T08:20:34;21.20;25.60
7341;DHT22;6870;50.944;6.932;2023-04-06T08:23:03;21.20;25.80
7341;DHT22;6870;50.944;6.932;2023-04-06T08:25:31;21.30;25.80
7341;DHT22;6870;50.944;6.932;2023-04-06T08:27:59;21.00;25.20
7341;DHT22;6870;50.944;6.932;2023-04-06T08:30:28;21.30;25.70
7341;DHT22;6870;50.944;6.932;2023-04-06T08:32:56;21.30;25.50
7341;DHT22;6870;50.944;6.932;2023-04-06T08:35:25;21.00;24.60
7341;DHT22;6870;50.944;6.932;2023-04-06T08:37:56;21.30;24.90
7341;DHT22;6870;50.944;6.932;2023-04-06T08:40:25;21.20;25.10
7341;DHT22;6870;50.944;6.932;2023-04-06T08:42:55;21.50;24.50
7341;DHT22;6870;50.944;6.932;2023-04-06T08:45:24;21.40;25.00
7341;DHT22;6870;50.944;6.932;2023-04-06T08:47:52;21.40;24.80
7341;DHT22;6870;50.944;6.932;2023-04-06T08:50:23;21.50;25.10
7341;DHT22;6870;50.944;6.932;2023-04-06T08:52:52;21.40;24.80
7341;DHT22;6870;50.944;6.932;2023-04-06T08:55:22;21.60;24.60
7341;DHT22;6870;50.944;6.932;2023-04-06T08:57:50;21.40;24.60
7341;DHT22;6870;50.944;6.932;2023-04-06T09:00:20;21.60;24.50
7341;DHT22;6870;50.944;6.932;2023-04-06T09:02:49;21.60;24.40
7341;DHT22;6870;50.944;6.932;2023-04-06T09:05:19;21.60;24.30
7341;DHT22;6870;50.944;6.932;2023-04-06T09:07:47;21.60;23.80
7341;DHT22;6870;50.944;6.932;2023-04-06T09:10:16;21.90;24.30
7341;DHT22;6870;50.944;6.932;2023-04-06T09:12:46;21.80;24.20
7341;DHT22;6870;50.944;6.932;2023-04-06T09:15:19;22.20;23.60
7341;DHT22;6870;50.944;6.932;2023-04-06T09:17:50;21.70;24.00
7341;DHT22;6870;50.944;6.932;2023-04-06T09:20:22;22.20;24.40
7341;DHT22;6870;50.944;6.932;2023-04-06T09:22:52;21.80;23.80
7341;DHT22;6870;50.944;6.932;2023-04-06T09:25:22;22.00;23.00
7341;DHT22;6870;50.944;6.932;2023-04-06T09:28:01;22.40;24.40
7341;DHT22;6870;50.944;6.932;2023-04-06T09:30:31;21.90;23.90
7341;DHT22;6870;50.944;6.932;2023-04-06T09:32:59;22.30;24.20
7341;DHT22;6870;50.944;6.932;2023-04-06T09:35:27;22.40;24.20
7341;DHT22;6870;50.944;6.932;2023-04-06T09:37:57;22.20;24.10
7341;DHT22;6870;50.944;6.932;2023-04-06T09:40:26;22.50;24.30
7341;DHT22;6870;50.944;6.932;2023-04-06T09:42:55;22.50;24.30
7341;DHT22;6870;50.944;6.932;2023-04-06T09:45:29;22.50;23.40
7341;DHT22;6870;50.944;6.932;2023-04-06T09:47:59;22.90;24.50
7341;DHT22;6870;50.944;6.932;2023-04-06T09:50:27;22.90;24.30
7341;DHT22;6870;50.944;6.932;2023-04-06T09:52:58;22.50;23.90
7341;DHT22;6870;50.944;6.932;2023-04-06T09:55:31;22.60;24.00
7341;DHT22;6870;50.944;6.932;2023-04-06T09:58:04;22.40;23.70
7341;DHT22;6870;50.944;6.932;2023-04-06T10:00:43;23.00;23.90
7341;DHT22;6870;50.944;6.932;2023-04-06T10:03:20;22.60;22.90
7341;DHT22;6870;50.944;6.932;2023-04-06T10:05:55;22.50;21.60
7341;DHT22;6870;50.944;6.932;2023-04-06T10:08:27;22.50;20.70
7341;DHT22;6870;50.944;6.932;2023-04-06T10:11:00;22.60;20.50
7341;DHT22;6870;50.944;6.932;2023-04-06T10:13:28;22.50;20.20
7341;DHT22;6870;50.944;6.932;2023-04-06T10:15:59;22.50;20.10
7341;DHT22;6870;50.944;6.932;2023-04-06T10:18:29;22.60;20.10
7341;DHT22;6870;50.944;6.932;2023-04-06T10:21:01;22.50;19.80
7341;DHT22;6870;50.944;6.932;2023-04-06T10:23:35;22.40;18.90
7341;DHT22;6870;50.944;6.932;2023-04-06T10:26:04;22.40;18.80
7341;DHT22;6870;50.944;6.932;2023-04-06T10:28:35;22.50;18.40
7341;DHT22;6870;50.944;6.932;2023-04-06T10:31:11;22.40;18.90
7341;DHT22;6870;50.944;6.932;2023-04-06T10:33:39;22.40;18.90
7341;DHT22;6870;50.944;6.932;2023-04-06T10:36:12;22.00;18.20
7341;DHT22;6870;50.944;6.932;2023-04-06T10:38:42;22.50;18.50
7341;DHT22;6870;50.944;6.932;2023-04-06T10:41:11;22.60;19.00
7341;DHT22;6870;50.944;6.932;2023-04-06T10:43:41;22.50;18.90
7341;DHT22;6870;50.944;6.932;2023-04-06T10:46:11;22.50;19.20
7341;DHT22;6870;50.944;6.932;2023-04-06T10:48:40;22.30;19.30
7341;DHT22;6870;50.944;6.932;2023-04-06T10:51:10;22.60;20.30
7341;DHT22;6870;50.944;6.932;2023-04-06T10:53:41;22.40;20.60
7341;DHT22;6870;50.944;6.932;2023-04-06T10:56:11;22.20;20.40
7341;DHT22;6870;50.944;6.932;2023-04-06T10:58:44;22.30;20.50
7341;DHT22;6870;50.944;6.932;2023-04-06T11:01:16;22.30;20.50
7341;DHT22;6870;50.944;6.932;2023-04-06T11:03:45;22.30;20.90
7341;DHT22;6870;50.944;6.932;2023-04-06T11:06:20;22.30;21.00
7341;DHT22;6870;50.944;6.932;2023-04-06T11:08:49;22.30;21.10
7341;DHT22;6870;50.944;6.932;2023-04-06T11:11:19;22.30;21.30
7341;DHT22;6870;50.944;6.932;2023-04-06T11:13:50;22.40;21.60
7341;DHT22;6870;50.944;6.932;2023-04-06T11:16:21;22.30;21.80
7341;DHT22;6870;50.944;6.932;2023-04-06T11:18:54;22.20;22.10
7341;DHT22;6870;50.944;6.932;2023-04-06T11:21:34;22.40;22.40
7341;DHT22;6870;50.944;6.932;2023-04-06T11:24:05;22.40;22.70
7341;DHT22;6870;50.944;6.932;2023-04-06T11:26:38;22.40;23.10
7341;DHT22;6870;50.944;6.932;2023-04-06T11:29:07;22.40;23.10
7341;DHT22;6870;50.944;6.932;2023-04-06T11:31:45;22.20;23.10
7341;DHT22;6870;50.944;6.932;2023-04-06T11:34:17;22.30;23.40
7341;DHT22;6870;50.944;6.932;2023-04-06T11:36:47;22.30;23.40
7341;DHT22;6870;50.944;6.932;2023-04-06T11:39:19;22.30;23.40
7341;DHT22;6870;50.944;6.932;2023-04-06T11:41:48;22.20;23.40
7341;DHT22;6870;50.944;6.932;2023-04-06T11:44:31;22.30;23.20
7341;DHT22;6870;50.944;6.932;2023-04-06T11:47:02;22.60;23.80
7341;DHT22;6870;50.944;6.932;2023-04-06T11:49:32;22.30;23.50
7341;DHT22;6870;50.944;6.932;2023-04-06T11:52:01;22.40;23.60
7341;DHT22;6870;50.944;6.932;2023-04-06T11:54:30;22.40;24.20
7341;DHT22;6870;50.944;6.932;2023-04-06T11:56:59;22.40;23.60
7341;DHT22;6870;50.944;6.932;2023-04-06T11:59:29;22.60;23.80
7341;DHT22;6870;50.944;6.932;2023-04-06T12:01:58;22.30;23.50
7341;DHT22;6870;50.944;6.932;2023-04-06T12:04:27;22.80;23.80
7341;DHT22;6870;50.944;6.932;2023-04-06T12:06:56;22.40;23.40
7341;DHT22;6870;50.944;6.932;2023-04-06T12:09:25;22.90;23.70
7341;DHT22;6870;50.944;6.932;2023-04-06T12:11:53;22.40;23.20
7341;DHT22;6870;50.944;6.932;2023-04-06T12:14:21;23.00;23.80
7341;DHT22;6870;50.944;6.932;2023-04-06T12:16:49;22.80;23.80
7341;DHT22;6870;50.944;6.932;2023-04-06T12:19:18;22.40;23.50
7341;DHT22;6870;50.944;6.932;2023-04-06T12:21:47;22.90;24.70
7341;DHT22;6870;50.944;6.932;2023-04-06T12:24:16;22.50;23.50
7341;DHT22;6870;50.944;6.932;2023-04-06T12:26:44;22.80;23.90
7341;DHT22;6870;50.944;6.932;2023-04-06T12:29:14;22.90;24.10
7341;DHT22;6870;50.944;6.932;2023-04-06T12:31:42;22.90;24.00
7341;DHT22;6870;50.944;6.932;2023-04-06T12:34:12;22.70;23.80
7341;DHT22;6870;50.944;6.932;2023-04-06T12:36:40;22.70;23.80
7341;DHT22;6870;50.944;6.932;2023-04-06T12:39:09;22.40;23.40
7341;DHT22;6870;50.944;6.932;2023-04-06T12:41:38;22.60;23.70
7341;DHT22;6870;50.944;6.932;2023-04-06T12:44:07;22.60;24.10
7341;DHT22;6870;50.944;6.932;2023-04-06T12:46:36;22.40;23.20
7341;DHT22;6870;50.944;6.932;2023-04-06T12:49:04;22.50;23.70
7341;DHT22;6870;50.944;6.932;2023-04-06T12:51:32;22.60;24.00
7341;DHT22;6870;50.944;6.932;2023-04-06T12:54:01;22.60;23.90
7341;DHT22;6870;50.944;6.932;2023-04-06T12:56:30;22.40;23.90
7341;DHT22;6870;50.944;6.932;2023-04-06T12:58:59;22.40;23.90
7341;DHT22;6870;50.944;6.932;2023-04-06T13:01:27;22.70;23.80
7341;DHT22;6870;50.944;6.932;2023-04-06T13:03:56;22.50;24.20
7341;DHT22;6870;50.944;6.932;2023-04-06T13:06:24;22.50;23.50
7341;DHT22;6870;50.944;6.932;2023-04-06T13:08:55;22.60;23.20
7341;DHT22;6870;50.944;6.932;2023-04-06T13:11:25;22.80;23.50
7341;DHT22;6870;50.944;6.932;2023-04-06T13:13:56;22.70;23.40
7341;DHT22;6870;50.944;6.932;2023-04-06T13:16:24;22.80;23.40
7341;DHT22;6870;50.944;6.932;2023-04-06T13:18:52;23.00;23.50
7341;DHT22;6870;50.944;6.932;2023-04-06T13:21:20;22.90;23.50
7341;DHT22;6870;50.944;6.932;2023-04-06T13:23:49;22.70;23.40
7341;DHT22;6870;50.944;6.932;2023-04-06T13:26:18;23.10;23.60
7341;DHT22;6870;50.944;6.932;2023-04-06T13:28:46;23.20;23.90
7341;DHT22;6870;50.944;6.932;2023-04-06T13:31:16;22.60;23.40
7341;DHT22;6870;50.944;6.932;2023-04-06T13:33:44;23.20;23.70
7341;DHT22;6870;50.944;6.932;2023-04-06T13:36:12;22.80;23.40
7341;DHT22;6870;50.944;6.932;2023-04-06T13:38:43;22.70;23.40
7341;DHT22;6870;50.944;6.932;2023-04-06T13:41:18;22.70;24.20
7341;DHT22;6870;50.944;6.932;2023-04-06T13:43:47;22.30;24.10
7341;DHT22;6870;50.944;6.932;2023-04-06T13:46:17;22.40;23.20
7341;DHT22;6870;50.944;6.932;2023-04-06T13:48:46;22.60;24.50
7341;DHT22;6870;50.944;6.932;2023-04-06T13:51:15;22.60;23.80
7341;DHT22;6870;50.944;6.932;2023-04-06T13:53:43;22.30;24.60
7341;DHT22;6870;50.944;6.932;2023-04-06T13:56:11;22.30;24.50
7341;DHT22;6870;50.944;6.932;2023-04-06T13:58:39;22.30;24.90
7341;DHT22;6870;50.944;6.932;2023-04-06T14:01:08;22.30;24.90
7341;DHT22;6870;50.944;6.932;2023-04-06T14:03:38;22.40;25.40
7341;DHT22;6870;50.944;6.932;2023-04-06T14:06:12;21.90;25.30
7341;DHT22;6870;50.944;6.932;2023-04-06T14:08:43;21.90;25.50
7341;DHT22;6870;50.944;6.932;2023-04-06T14:11:11;22.00;25.90
7341;DHT22;6870;50.944;6.932;2023-04-06T14:13:40;22.00;25.90
7341;DHT22;6870;50.944;6.932;2023-04-06T14:16:09;22.10;25.40
7341;DHT22;6870;50.944;6.932;2023-04-06T14:18:38;22.10;26.10
7341;DHT22;6870;50.944;6.932;2023-04-06T14:21:06;21.80;25.80
7341;DHT22;6870;50.944;6.932;2023-04-06T14:23:34;21.90;25.60
7341;DHT22;6870;50.944;6.932;2023-04-06T14:26:04;22.10;25.70
7341;DHT22;6870;50.944;6.932;2023-04-06T14:28:33;22.20;26.10
7341;DHT22;6870;50.944;6.932;2023-04-06T14:31:09;22.10;26.40
7341;DHT22;6870;50.944;6.932;2023-04-06T14:33:40;22.30;26.60
7341;DHT22;6870;50.944;6.932;2023-04-06T14:36:09;22.20;26.60
7341;DHT22;6870;50.944;6.932;2023-04-06T14:38:37;22.10;26.30
7341;DHT22;6870;50.944;6.932;2023-04-06T14:41:08;22.10;26.50
7341;DHT22;6870;50.944;6.932;2023-04-06T14:43:36;21.80;26.40
7341;DHT22;6870;50.944;6.932;2023-04-06T14:46:04;22.10;26.20
7341;DHT22;6870;50.944;6.932;2023-04-06T14:48:32;22.00;26.20
7341;DHT22;6870;50.944;6.932;2023-04-06T14:51:01;22.20;26.60
7341;DHT22;6870;50.944;6.932;2023-04-06T14:53:29;22.10;25.70
7341;DHT22;6870;50.944;6.932;2023-04-06T14:55:58;21.90;26.40
7341;DHT22;6870;50.944;6.932;2023-04-06T14:58:26;21.90;26.10
7341;DHT22;6870;50.944;6.932;2023-04-06T15:00:55;21.90;26.70
7341;DHT22;6870;50.944;6.932;2023-04-06T15:03:24;22.00;26.60
7341;DHT22;6870;50.944;6.932;2023-04-06T15:05:53;21.80;26.90
7341;DHT22;6870;50.944;6.932;2023-04-06T15:08:23;21.60;26.80
7341;DHT22;6870;50.944;6.932;2023-04-06T15:10:51;21.30;26.60
7341;DHT22;6870;50.944;6.932;2023-04-06T15:13:21;21.50;27.00
7341;DHT22;6870;50.944;6.932;2023-04-06T15:15:50;21.40;26.80
7341;DHT22;6870;50.944;6.932;2023-04-06T15:18:19;21.30;26.90
7341;DHT22;6870;50.944;6.932;2023-04-06T15:20:47;21.40;26.70
7341;DHT22;6870;50.944;6.932;2023-04-06T15:23:15;21.40;27.10
7341;DHT22;6870;50.944;6.932;2023-04-06T15:25:46;21.10;26.80
7341;DHT22;6870;50.944;6.932;2023-04-06T15:28:14;21.20;27.30
7341;DHT22;6870;50.944;6.932;2023-04-06T15:30:42;21.40;27.10
7341;DHT22;6870;50.944;6.932;2023-04-06T15:33:11;21.50;27.50
7341;DHT22;6870;50.944;6.932;2023-04-06T15:35:39;21.40;28.10
7341;DHT22;6870;50.944;6.932;2023-04-06T15:38:09;21.40;27.20
7341;DHT22;6870;50.944;6.932;2023-04-06T15:40:43;21.40;27.70
7341;DHT22;6870;50.944;6.932;2023-04-06T15:43:13;21.20;27.10
7341;DHT22;6870;50.944;6.932;2023-04-06T15:45:41;21.20;27.70
7341;DHT22;6870;50.944;6.932;2023-04-06T15:48:10;21.20;27.20
7341;DHT22;6870;50.944;6.932;2023-04-06T15:50:38;21.20;27.50
7341;DHT22;6870;50.944;6.932;2023-04-06T15:53:06;20.80;27.20
7341;DHT22;6870;50.944;6.932;2023-04-06T15:55:34;21.10;27.60
7341;DHT22;6870;50.944;6.932;2023-04-06T15:58:02;21.10;27.70
7341;DHT22;6870;50.944;6.932;2023-04-06T16:00:31;21.20;27.60
7341;DHT22;6870;50.944;6.932;2023-04-06T16:02:59;21.00;27.20
7341;DHT22;6870;50.944;6.932;2023-04-06T16:05:28;21.10;27.70
7341;DHT22;6870;50.944;6.932;2023-04-06T16:08:02;20.70;27.10
7341;DHT22;6870;50.944;6.932;2023-04-06T16:10:31;20.80;27.60
7341;DHT22;6870;50.944;6.932;2023-04-06T16:12:59;21.10;28.50